createdAt,value
2023-01-17T00:04:48.270Z,3.30
2023-01-17T00:14:52.918Z,2.80
2023-01-17T00:24:56.255Z,3.10
2023-01-17T00:34:58.176Z,4.40
2023-01-17T00:45:01.566Z,3.58
2023-01-17T00:55:03.823Z,3.20
2023-01-17T01:05:07.819Z,2.90
2023-01-17T01:15:09.951Z,3.08
2023-01-17T01:25:16.084Z,3.00
2023-01-17T01:35:18.317Z,2.80
2023-01-17T01:45:23.829Z,2.90
2023-01-17T01:55:29.784Z,3.25
2023-01-17T02:05:34.797Z,2.92
2023-01-17T02:15:44.740Z,2.35
2023-01-17T02:26:22.314Z,2.30
2023-01-17T02:36:31.765Z,2.03
2023-01-17T02:46:42.780Z,1.90
2023-01-17T02:56:53.555Z,2.72
2023-01-17T03:06:58.858Z,1.85
2023-01-17T03:17:02.181Z,2.13
2023-01-17T03:27:04.238Z,1.70
2023-01-17T03:37:07.541Z,2.08
2023-01-17T03:47:09.494Z,1.95
2023-01-17T03:57:12.763Z,1.90
2023-01-17T04:07:14.698Z,2.10
2023-01-17T04:17:19.621Z,2.60
2023-01-17T04:27:21.530Z,2.00
2023-01-17T04:37:24.961Z,1.90
2023-01-17T04:47:26.875Z,1.33
2023-01-17T04:57:30.204Z,1.52
2023-01-17T05:07:32.848Z,1.75
2023-01-17T05:17:37.198Z,1.13
2023-01-17T05:27:39.134Z,1.48
2023-01-17T05:37:43.958Z,1.70
2023-01-17T05:47:47.093Z,1.65
2023-01-17T05:57:50.866Z,2.08
2023-01-17T06:07:53.076Z,1.92
2023-01-17T06:17:56.815Z,1.60
2023-01-17T06:27:58.773Z,1.83
2023-01-17T06:38:02.070Z,1.98
2023-01-17T06:48:05.252Z,2.13
2023-01-17T06:58:09.776Z,2.90
2023-01-17T07:08:11.748Z,2.40
2023-01-17T07:18:15.093Z,2.58
2023-01-17T07:28:17.025Z,2.13
2023-01-17T07:38:20.444Z,3.17
2023-01-17T07:48:24.001Z,2.75
2023-01-17T07:58:27.376Z,3.05
2023-01-17T08:08:29.645Z,3.65
2023-01-17T08:18:33.055Z,2.33
2023-01-17T08:28:35.125Z,2.55
2023-01-17T08:38:38.553Z,3.47
2023-01-17T08:48:40.484Z,2.80
2023-01-17T08:58:43.865Z,2.92
2023-01-17T09:08:46.473Z,3.50
2023-01-17T09:18:53.386Z,3.67
2023-01-17T09:28:55.956Z,3.40
2023-01-17T09:38:59.642Z,2.85
2023-01-17T09:49:08.331Z,3.45
2023-01-17T09:59:33.030Z,4.38
2023-01-17T10:09:57.680Z,5.00
2023-01-17T10:20:15.320Z,6.38
2023-01-17T10:30:23.212Z,5.25
2023-01-17T10:40:32.691Z,4.53
2023-01-17T10:50:44.290Z,5.45
2023-01-17T11:00:52.440Z,5.03
2023-01-17T11:10:54.462Z,5.07
2023-01-17T11:21:10.167Z,4.63
2023-01-17T11:31:26.322Z,4.38
2023-01-17T11:41:34.217Z,6.38
2023-01-17T11:51:41.139Z,5.78
2023-01-17T12:01:49.232Z,5.65
2023-01-17T12:11:58.098Z,5.13
2023-01-17T12:22:17.798Z,5.45
2023-01-17T12:32:52.115Z,4.03
2023-01-17T12:43:03.008Z,4.20
2023-01-17T12:53:14.200Z,3.70
2023-01-17T13:03:26.114Z,5.05
2023-01-17T13:13:29.624Z,4.03
2023-01-17T13:23:47.732Z,3.58
2023-01-17T13:34:24.935Z,4.55
2023-01-17T13:44:29.234Z,6.38
2023-01-17T13:54:32.539Z,5.97
2023-01-17T14:05:13.759Z,7.10
2023-01-17T14:25:27.618Z,6.70
2023-01-17T14:35:31.724Z,5.93
2023-01-17T14:45:36.423Z,6.07
2023-01-17T14:55:39.146Z,8.18
2023-01-17T15:05:45.710Z,7.50
2023-01-17T15:15:47.945Z,7.47
2023-01-17T15:25:52.956Z,8.80
2023-01-17T15:36:00.006Z,12.10
2023-01-17T15:46:03.489Z,13.65
2023-01-17T15:56:27.313Z,12.60
2023-01-17T16:06:36.786Z,12.65
2023-01-17T16:16:38.813Z,12.48
2023-01-17T16:26:42.222Z,12.65
2023-01-17T16:36:44.193Z,12.45
2023-01-17T16:46:47.530Z,11.10
2023-01-17T16:56:49.575Z,11.55
2023-01-17T17:06:52.958Z,12.10
2023-01-17T17:16:54.920Z,10.95
2023-01-17T17:26:58.594Z,10.75
2023-01-17T17:37:03.504Z,9.18
2023-01-17T17:47:07.471Z,11.48
2023-01-17T17:57:09.638Z,11.02
2023-01-17T18:07:13.052Z,12.48
2023-01-17T18:17:15.031Z,10.93
2023-01-17T18:27:18.346Z,10.48
2023-01-17T18:37:20.295Z,10.63
2023-01-17T18:47:23.633Z,11.52
2023-01-17T18:57:25.599Z,11.65
2023-01-17T19:07:29.066Z,10.15
2023-01-17T19:17:31.027Z,10.70
2023-01-17T19:27:34.438Z,10.73
2023-01-17T19:37:36.398Z,9.93
2023-01-17T19:47:40.359Z,10.15
2023-01-17T19:57:42.337Z,12.18
2023-01-17T20:07:45.666Z,10.93
2023-01-17T20:17:47.619Z,10.68
2023-01-17T20:27:51.266Z,12.88
2023-01-17T20:37:53.265Z,12.05
2023-01-17T20:47:57.471Z,10.82
2023-01-17T20:58:01.568Z,11.52
2023-01-17T21:08:05.230Z,12.05
2023-01-17T21:18:07.180Z,11.75
2023-01-17T21:29:00.213Z,10.98
2023-01-17T21:39:18.812Z,12.18
2023-01-17T21:49:22.176Z,10.00
2023-01-17T21:59:25.505Z,9.77
2023-01-17T22:09:27.506Z,9.82
2023-01-17T22:19:30.867Z,9.65
2023-01-17T22:29:32.922Z,9.60
2023-01-17T22:39:36.484Z,8.75
2023-01-17T22:49:38.579Z,7.22
2023-01-17T22:59:41.932Z,6.22
2023-01-17T23:09:44.769Z,6.28
2023-01-17T23:19:49.592Z,6.78
2023-01-17T23:29:51.546Z,6.22
2023-01-17T23:39:54.837Z,6.45
2023-01-17T23:49:56.778Z,5.43
